Time;durP1;ratioP1;P1;durP2;ratioP2;P2;SDS_P1;SDS_P2;PMS_P1;PMS_P2;Temp;Humidity;BMP_temperature;BMP_pressure;BME280_temperature;BME280_humidity;BME280_pressure;Samples;Min_cycle;Max_cycle;Signal;HPM_P1;HPM_P2
2023/06/14 00:01:34;;;;;;;9.73;3.08;;;16.90;77.10;;;;;;4957536;29;20202;-87
2023/06/14 00:04:04;;;;;;;10.65;2.80;;;16.60;77.10;;;;;;4957757;28;20051;-88
2023/06/14 00:06:30;;;;;;;13.30;3.13;;;16.60;77.30;;;;;;4955331;28;20059;-87
2023/06/14 00:08:56;;;;;;;7.18;2.63;;;16.50;77.40;;;;;;4956498;28;20095;-88
2023/06/14 00:11:21;;;;;;;9.20;3.08;;;16.90;77.80;;;;;;4955471;28;20400;-87
2023/06/14 00:13:47;;;;;;;8.85;3.10;;;16.60;77.80;;;;;;4954480;28;20039;-88
2023/06/14 00:16:13;;;;;;;8.23;2.60;;;16.40;77.90;;;;;;4956307;28;20558;-87
2023/06/14 00:18:38;;;;;;;11.23;3.00;;;16.30;78.00;;;;;;4968443;28;20045;-87
2023/06/14 00:21:05;;;;;;;12.68;3.15;;;16.70;78.50;;;;;;4965201;28;20066;-87
2023/06/14 00:23:31;;;;;;;10.35;2.90;;;16.20;78.40;;;;;;4960782;28;20058;-87
2023/06/14 00:25:56;;;;;;;7.60;2.60;;;16.70;78.90;;;;;;4955306;28;20400;-86
2023/06/14 00:28:22;;;;;;;8.77;2.80;;;16.40;79.20;;;;;;4955411;28;20126;-86
2023/06/14 00:30:48;;;;;;;9.45;2.72;;;16.00;79.00;;;;;;4954938;28;20428;-86
2023/06/14 00:33:14;;;;;;;11.30;3.03;;;16.20;79.80;;;;;;4956127;28;20138;-86
2023/06/14 00:35:39;;;;;;;8.30;2.80;;;16.00;79.50;;;;;;4954226;29;20047;-86
2023/06/14 00:38:05;;;;;;;9.45;3.08;;;15.90;79.80;;;;;;4954536;28;20526;-86
2023/06/14 00:40:31;;;;;;;8.23;2.78;;;15.80;79.90;;;;;;4956001;29;20376;-86
2023/06/14 00:42:56;;;;;;;10.02;2.90;;;16.20;80.30;;;;;;4954245;28;20499;-86
2023/06/14 00:45:22;;;;;;;10.57;3.00;;;15.70;80.30;;;;;;4954830;28;20126;-87
2023/06/14 00:47:51;;;;;;;8.32;2.97;;;16.00;80.80;;;;;;4958708;28;20082;-86
2023/06/14 00:50:17;;;;;;;8.68;3.50;;;15.60;80.80;;;;;;4974576;28;20596;-86
2023/06/14 00:52:42;;;;;;;9.07;3.35;;;15.60;81.00;;;;;;4973899;28;20081;-86
2023/06/14 00:55:11;;;;;;;10.27;3.20;;;15.60;81.20;;;;;;4974342;28;20055;-86
2023/06/14 00:57:37;;;;;;;9.48;3.00;;;15.60;82.10;;;;;;4975105;28;20047;-87
2023/06/14 01:00:04;;;;;;;9.52;3.03;;;15.50;81.70;;;;;;4974629;28;20055;-86
2023/06/14 01:02:30;;;;;;;10.68;3.22;;;15.50;82.50;;;;;;4972667;28;20090;-86
2023/06/14 01:04:56;;;;;;;11.40;2.92;;;15.40;82.20;;;;;;4973583;28;20074;-86
2023/06/14 01:08:10;;;;;;;7.95;2.90;;;15.40;82.40;;;;;;4938752;28;1064834;-86
2023/06/14 01:11:01;;;;;;;8.25;2.80;;;15.40;83.10;;;;;;4922784;28;20048;-87
2023/06/14 01:13:38;;;;;;;10.15;2.97;;;15.30;83.30;;;;;;4974181;28;20062;-86
2023/06/14 01:16:05;;;;;;;8.30;2.90;;;15.70;84.00;;;;;;4974359;28;20150;-86
2023/06/14 01:18:32;;;;;;;8.00;3.03;;;15.20;83.50;;;;;;4975253;28;20043;-87
2023/06/14 01:20:57;;;;;;;8.63;2.90;;;15.40;84.00;;;;;;4974186;28;20046;-86
2023/06/14 01:23:24;;;;;;;8.07;2.67;;;15.10;84.00;;;;;;4973542;28;20055;-87
2023/06/14 01:25:53;;;;;;;9.45;3.17;;;15.10;84.50;;;;;;4975508;28;20118;-86
2023/06/14 01:28:21;;;;;;;9.85;2.80;;;15.30;85.00;;;;;;4976500;28;20078;-86
2023/06/14 01:30:51;;;;;;;9.05;3.28;;;15.10;85.00;;;;;;4980021;28;20042;-87
2023/06/14 01:33:22;;;;;;;12.45;3.38;;;15.50;85.80;;;;;;4974674;28;20045;-86
2023/06/14 01:35:51;;;;;;;10.60;3.17;;;15.00;85.90;;;;;;4975728;28;20075;-86
2023/06/14 01:38:23;;;;;;;11.40;3.50;;;15.00;86.00;;;;;;4967889;28;20054;-86
2023/06/14 01:40:50;;;;;;;9.23;3.33;;;14.90;86.80;;;;;;4954695;28;20118;-86
2023/06/14 01:43:16;;;;;;;9.82;3.20;;;14.90;86.20;;;;;;4960418;28;20107;-86
2023/06/14 01:45:43;;;;;;;9.45;2.97;;;15.20;86.90;;;;;;4973278;28;20058;-86
2023/06/14 01:48:09;;;;;;;7.95;2.90;;;14.90;86.80;;;;;;4973322;28;20043;-86
2023/06/14 01:50:35;;;;;;;10.90;3.03;;;14.80;87.30;;;;;;4975414;28;20117;-86
2023/06/14 01:53:00;;;;;;;10.40;3.17;;;14.80;87.50;;;;;;4972786;28;20453;-86
2023/06/14 01:55:27;;;;;;;10.75;2.90;;;14.70;87.80;;;;;;4974836;28;20042;-86
2023/06/14 01:57:53;;;;;;;8.38;3.22;;;14.70;88.00;;;;;;4973525;28;20487;-86
2023/06/14 02:00:20;;;;;;;9.27;3.00;;;14.70;88.30;;;;;;4972571;28;20530;-86
2023/06/14 02:02:45;;;;;;;8.75;3.05;;;14.70;88.50;;;;;;4973749;28;20061;-87
2023/06/14 02:05:11;;;;;;;12.30;2.97;;;14.60;88.50;;;;;;4972672;28;20043;-86
2023/06/14 02:07:37;;;;;;;9.20;3.03;;;14.60;89.10;;;;;;4972897;28;20058;-86
2023/06/14 02:10:06;;;;;;;8.20;3.10;;;14.50;89.20;;;;;;4974086;28;20149;-87
2023/06/14 02:12:31;;;;;;;11.38;3.50;;;14.50;89.60;;;;;;4972744;28;20134;-86
2023/06/14 02:14:57;;;;;;;9.65;3.60;;;14.50;89.90;;;;;;4957949;28;20134;-86
2023/06/14 02:17:23;;;;;;;9.15;3.13;;;14.40;89.80;;;;;;4954455;29;20051;-86
2023/06/14 02:19:50;;;;;;;10.02;3.05;;;14.40;90.00;;;;;;4969682;28;20451;-86
2023/06/14 02:22:16;;;;;;;9.27;3.00;;;14.30;90.20;;;;;;4974408;28;20051;-86
2023/06/14 02:24:42;;;;;;;11.32;3.17;;;14.30;90.40;;;;;;4974600;28;20070;-86
2023/06/14 02:27:10;;;;;;;11.13;3.20;;;14.30;90.60;;;;;;4972542;28;20043;-86
2023/06/14 02:29:36;;;;;;;8.32;3.20;;;14.20;90.80;;;;;;4972840;28;20047;-86
2023/06/14 02:32:02;;;;;;;9.73;3.10;;;14.20;90.90;;;;;;4972835;28;20038;-86
2023/06/14 02:34:28;;;;;;;11.32;3.10;;;14.20;91.20;;;;;;4971971;28;20047;-87
2023/06/14 02:36:55;;;;;;;10.10;3.22;;;14.20;91.30;;;;;;4973050;28;20050;-86
2023/06/14 02:39:23;;;;;;;9.07;3.60;;;14.20;91.40;;;;;;4972811;28;20074;-86
2023/06/14 02:41:49;;;;;;;8.63;3.40;;;15.00;91.70;;;;;;4972341;28;20045;-86
2023/06/14 02:44:15;;;;;;;8.90;3.05;;;14.10;91.70;;;;;;4965146;28;20059;-86
2023/06/14 02:46:41;;;;;;;10.32;3.10;;;14.10;91.80;;;;;;4954115;28;20043;-86
2023/06/14 02:49:06;;;;;;;12.65;3.13;;;14.00;91.90;;;;;;4961337;28;20419;-87
2023/06/14 02:51:32;;;;;;;11.38;3.35;;;14.00;92.10;;;;;;4975627;28;20049;-86
2023/06/14 02:53:57;;;;;;;11.45;3.65;;;14.30;92.40;;;;;;4973940;28;20043;-88
2023/06/14 02:56:23;;;;;;;11.50;3.30;;;14.30;92.50;;;;;;4972075;28;20102;-85
2023/06/14 02:58:48;;;;;;;8.90;3.15;;;14.00;92.40;;;;;;4972539;28;20126;-86
2023/06/14 03:01:14;;;;;;;8.50;3.13;;;13.90;92.50;;;;;;4973497;28;20049;-86
2023/06/14 03:03:40;;;;;;;10.18;3.30;;;14.40;92.90;;;;;;4973089;28;20138;-86
2023/06/14 03:06:05;;;;;;;9.50;3.33;;;13.80;93.00;;;;;;4971498;28;20046;-86
2023/06/14 03:08:33;;;;;;;11.75;3.42;;;14.60;93.20;;;;;;4973744;28;20558;-86
2023/06/14 03:10:58;;;;;;;9.57;3.15;;;13.80;93.10;;;;;;4971680;28;20114;-86
2023/06/14 03:13:24;;;;;;;9.52;3.45;;;13.70;93.20;;;;;;4973900;28;20051;-86
2023/06/14 03:15:52;;;;;;;10.55;3.65;;;14.10;93.40;;;;;;4972928;28;20085;-87
2023/06/14 03:18:19;;;;;;;7.38;3.08;;;13.70;93.80;;;;;;4971964;28;20133;-86
2023/06/14 03:20:45;;;;;;;9.38;3.45;;;13.70;93.70;;;;;;4973507;28;20503;-86
2023/06/14 03:23:12;;;;;;;12.18;3.58;;;13.70;93.90;;;;;;4971310;28;20050;-86
2023/06/14 03:25:38;;;;;;;9.20;3.53;;;13.90;94.10;;;;;;4962286;28;20042;-86
2023/06/14 03:28:07;;;;;;;8.20;3.40;;;13.70;94.00;;;;;;4972248;28;20051;-86
2023/06/14 03:30:32;;;;;;;10.35;3.10;;;14.20;94.80;;;;;;4972663;28;20094;-86
2023/06/14 03:33:00;;;;;;;9.45;3.55;;;13.60;94.30;;;;;;4973453;28;20043;-87
2023/06/14 03:35:26;;;;;;;10.05;3.20;;;13.60;94.40;;;;;;4972186;28;20490;-86
2023/06/14 03:37:52;;;;;;;9.90;3.67;;;14.00;94.90;;;;;;4971528;28;20046;-86
2023/06/14 03:40:19;;;;;;;8.80;3.30;;;13.60;94.70;;;;;;4973054;28;20062;-86
2023/06/14 03:42:45;;;;;;;13.13;3.42;;;13.60;95.00;;;;;;4956221;28;20085;-86
2023/06/14 03:45:11;;;;;;;8.73;3.17;;;14.30;95.30;;;;;;4972412;28;20078;-86
2023/06/14 03:47:36;;;;;;;9.45;3.67;;;14.30;95.30;;;;;;4973321;28;20034;-86
2023/06/14 03:50:03;;;;;;;9.82;3.20;;;13.70;95.30;;;;;;4971509;28;20039;-86
2023/06/14 03:52:29;;;;;;;9.63;3.45;;;13.60;95.30;;;;;;4952319;28;20055;-86
2023/06/14 03:54:55;;;;;;;8.60;3.20;;;13.60;95.50;;;;;;4953238;29;20148;-86
2023/06/14 03:57:21;;;;;;;10.15;3.15;;;13.60;95.70;;;;;;4971959;28;20058;-86
2023/06/14 03:59:47;;;;;;;9.00;3.60;;;13.90;95.80;;;;;;4973437;28;20074;-87
2023/06/14 04:02:15;;;;;;;8.70;3.50;;;13.90;96.00;;;;;;4967190;28;20145;-86
2023/06/14 04:04:44;;;;;;;10.15;3.83;;;13.70;96.00;;;;;;4953195;28;20083;-86
2023/06/14 04:07:11;;;;;;;12.80;3.70;;;13.70;96.20;;;;;;4951125;28;20061;-87
2023/06/14 04:09:37;;;;;;;9.43;3.70;;;13.90;96.30;;;;;;4952454;28;20126;-86
2023/06/14 04:12:04;;;;;;;9.50;3.55;;;13.90;96.50;;;;;;4951674;28;20055;-86
2023/06/14 04:14:30;;;;;;;10.32;3.60;;;13.70;96.30;;;;;;4952604;28;20039;-85
2023/06/14 04:16:56;;;;;;;9.30;3.78;;;13.80;96.80;;;;;;4953397;28;20503;-86
2023/06/14 04:19:22;;;;;;;10.20;3.60;;;13.80;96.50;;;;;;4955892;29;20042;-86
2023/06/14 04:21:47;;;;;;;10.30;3.25;;;14.00;96.60;;;;;;4957747;28;20468;-86
2023/06/14 04:24:13;;;;;;;10.27;3.65;;;14.00;96.80;;;;;;4956049;29;20455;-86
2023/06/14 04:26:40;;;;;;;9.95;3.70;;;14.10;96.80;;;;;;4955594;28;20071;-86
2023/06/14 04:29:06;;;;;;;11.05;3.70;;;14.00;96.80;;;;;;4957237;28;20050;-86
2023/06/14 04:31:33;;;;;;;9.80;3.30;;;14.00;96.90;;;;;;4955912;28;20031;-86
2023/06/14 04:33:59;;;;;;;9.52;3.13;;;14.50;97.10;;;;;;4956372;28;20078;-86
2023/06/14 04:36:27;;;;;;;11.65;3.78;;;14.40;97.00;;;;;;4957269;28;20451;-86
2023/06/14 04:38:54;;;;;;;9.35;3.70;;;14.20;96.90;;;;;;4957436;28;20047;-86
2023/06/14 04:41:22;;;;;;;9.27;3.30;;;14.70;97.10;;;;;;4956507;28;20051;-86
2023/06/14 04:43:49;;;;;;;10.65;3.58;;;14.30;96.80;;;;;;4956027;28;20086;-87
2023/06/14 04:46:17;;;;;;;8.43;3.40;;;14.50;97.10;;;;;;4958411;28;20144;-86
2023/06/14 04:48:42;;;;;;;10.45;3.60;;;14.50;96.90;;;;;;4955055;29;20384;-86
2023/06/14 04:51:09;;;;;;;10.45;3.78;;;15.00;97.00;;;;;;4956966;28;20130;-86
2023/06/14 04:53:34;;;;;;;9.40;3.90;;;14.70;96.80;;;;;;4957285;28;20035;-86
2023/06/14 04:56:00;;;;;;;9.80;3.80;;;14.70;96.60;;;;;;4956034;28;20538;-85
2023/06/14 04:58:28;;;;;;;13.70;3.83;;;14.80;96.50;;;;;;4956719;28;20039;-86
2023/06/14 05:00:55;;;;;;;10.35;3.55;;;14.90;96.40;;;;;;4955494;28;20047;-86
2023/06/14 05:03:25;;;;;;;8.98;3.70;;;15.20;96.30;;;;;;4956061;28;20070;-86
2023/06/14 05:05:53;;;;;;;12.73;3.80;;;15.10;96.20;;;;;;4956874;28;20043;-86
2023/06/14 05:08:18;;;;;;;8.57;3.53;;;15.10;96.00;;;;;;4955492;28;20051;-87
2023/06/14 05:10:47;;;;;;;10.25;3.67;;;15.20;95.80;;;;;;4956737;28;20527;-86
2023/06/14 05:13:12;;;;;;;9.82;3.70;;;15.30;95.70;;;;;;4956585;29;20040;-86
2023/06/14 05:15:38;;;;;;;10.70;3.35;;;15.30;95.60;;;;;;4955907;28;20046;-86
2023/06/14 05:18:03;;;;;;;9.15;3.85;;;15.30;95.50;;;;;;4956247;28;20463;-86
2023/06/14 05:20:29;;;;;;;12.02;3.80;;;15.50;95.40;;;;;;4954942;28;20130;-87
2023/06/14 05:22:56;;;;;;;11.05;3.55;;;15.50;95.30;;;;;;4955386;28;20051;-87
2023/06/14 05:25:22;;;;;;;10.88;4.13;;;15.60;95.20;;;;;;4955049;28;20051;-86
2023/06/14 05:27:49;;;;;;;11.55;3.70;;;15.70;95.00;;;;;;4956400;28;20088;-86
2023/06/14 05:30:15;;;;;;;11.38;3.70;;;16.10;95.00;;;;;;4952820;28;20471;-86
2023/06/14 05:32:41;;;;;;;8.35;3.30;;;15.80;94.90;;;;;;4955414;28;20043;-87
2023/06/14 05:35:07;;;;;;;9.18;3.47;;;15.90;94.80;;;;;;4956213;28;20043;-87
2023/06/14 05:37:33;;;;;;;12.15;3.72;;;16.00;94.60;;;;;;4955582;28;20146;-86
2023/06/14 05:39:59;;;;;;;9.20;3.90;;;16.60;94.60;;;;;;4956025;29;20110;-86
2023/06/14 05:42:24;;;;;;;10.05;3.55;;;16.50;94.50;;;;;;4954597;28;20143;-85
2023/06/14 05:44:50;;;;;;;8.85;3.17;;;16.20;94.20;;;;;;4955252;29;20050;-86
2023/06/14 05:47:16;;;;;;;10.38;3.60;;;16.40;94.20;;;;;;4954443;28;20047;-84
2023/06/14 05:49:42;;;;;;;10.25;3.70;;;16.50;94.00;;;;;;4956159;29;20388;-83
2023/06/14 05:52:08;;;;;;;10.35;3.53;;;16.60;94.00;;;;;;4953446;28;20063;-81
2023/06/14 05:54:33;;;;;;;10.15;3.88;;;16.60;93.60;;;;;;4969314;28;20043;-80
2023/06/14 05:57:03;;;;;;;11.20;3.67;;;16.90;93.50;;;;;;4974741;28;20543;-82
2023/06/14 05:59:29;;;;;;;9.77;3.53;;;16.80;93.30;;;;;;4973064;28;20046;-86
2023/06/14 06:01:55;;;;;;;11.25;3.50;;;17.10;93.10;;;;;;4974759;28;20083;-84
2023/06/14 06:04:21;;;;;;;8.93;3.80;;;17.00;92.80;;;;;;4973345;28;20050;-82
2023/06/14 06:06:47;;;;;;;8.07;3.55;;;17.10;92.70;;;;;;4961393;28;20066;-83
2023/06/14 06:09:14;;;;;;;9.45;3.50;;;17.30;92.40;;;;;;5011496;23;20054;-84
2023/06/14 06:11:42;;;;;;;8.98;3.20;;;17.30;92.20;;;;;;4963836;28;20051;-85
2023/06/14 06:14:08;;;;;;;10.40;3.28;;;17.50;91.90;;;;;;4954901;28;20506;-84
2023/06/14 06:16:34;;;;;;;10.52;3.40;;;17.50;91.80;;;;;;4960047;28;20058;-78
2023/06/14 06:19:00;;;;;;;8.63;3.25;;;17.50;91.60;;;;;;4973628;28;20502;-78
2023/06/14 06:21:25;;;;;;;9.32;3.35;;;17.70;91.50;;;;;;4956536;28;20097;-78
2023/06/14 06:23:51;;;;;;;8.40;2.95;;;17.80;91.30;;;;;;4954983;28;20459;-79
2023/06/14 06:26:17;;;;;;;8.65;3.22;;;17.90;91.20;;;;;;4954227;28;20051;-78
2023/06/14 06:28:42;;;;;;;10.38;2.95;;;18.10;91.00;;;;;;4955347;28;20183;-78
2023/06/14 06:31:08;;;;;;;10.88;3.30;;;18.20;90.80;;;;;;4961777;28;20055;-79
2023/06/14 06:33:33;;;;;;;8.52;3.15;;;18.20;90.50;;;;;;4953139;29;20058;-79
2023/06/14 06:35:59;;;;;;;8.63;2.90;;;18.30;90.30;;;;;;4954957;28;20379;-79
2023/06/14 06:38:25;;;;;;;10.80;3.30;;;18.50;90.20;;;;;;4954763;28;20051;-78
2023/06/14 06:40:50;;;;;;;8.65;3.10;;;18.50;90.20;;;;;;4953207;28;20130;-78
2023/06/14 06:43:17;;;;;;;10.77;3.22;;;18.60;90.10;;;;;;4971762;28;20477;-79
2023/06/14 06:45:43;;;;;;;8.57;3.00;;;18.70;90.00;;;;;;4972239;28;20054;-79
2023/06/14 06:48:12;;;;;;;7.43;3.00;;;19.20;90.00;;;;;;4966963;28;20043;-80
2023/06/14 06:50:38;;;;;;;8.57;2.80;;;18.90;88.80;;;;;;4972120;28;20041;-79
2023/06/14 06:53:04;;;;;;;9.85;2.95;;;18.90;89.20;;;;;;4971358;28;20078;-78
2023/06/14 06:55:30;;;;;;;9.55;3.03;;;19.10;89.20;;;;;;4971989;28;20081;-79
2023/06/14 06:57:55;;;;;;;9.55;3.20;;;19.20;88.90;;;;;;4969709;28;20074;-80
2023/06/14 07:00:21;;;;;;;8.70;2.97;;;19.40;89.00;;;;;;4971271;28;20101;-80
2023/06/14 07:02:47;;;;;;;11.05;3.75;;;19.50;88.90;;;;;;4955868;28;20043;-81
2023/06/14 07:05:13;;;;;;;8.70;3.20;;;19.60;89.00;;;;;;4951886;29;20530;-81
2023/06/14 07:07:39;;;;;;;12.07;3.28;;;19.80;87.50;;;;;;4954790;28;20082;-79
2023/06/14 07:10:05;;;;;;;10.07;2.92;;;19.90;88.00;;;;;;4951841;28;20126;-80
2023/06/14 07:12:33;;;;;;;8.82;3.00;;;20.00;87.70;;;;;;4954507;28;20150;-80
2023/06/14 07:15:00;;;;;;;7.97;2.90;;;20.10;87.30;;;;;;4953482;28;20067;-79
2023/06/14 07:17:25;;;;;;;6.93;2.72;;;20.40;86.50;;;;;;4953580;28;20161;-80
2023/06/14 07:19:51;;;;;;;8.88;2.67;;;20.50;86.10;;;;;;4966993;28;20099;-79
2023/06/14 07:22:17;;;;;;;7.38;2.70;;;20.60;86.10;;;;;;4960854;28;20047;-80
2023/06/14 07:24:43;;;;;;;9.13;2.85;;;20.70;85.30;;;;;;4964625;28;20101;-80
2023/06/14 07:27:09;;;;;;;8.10;2.95;;;21.10;84.80;;;;;;4972154;28;20074;-80
2023/06/14 07:29:35;;;;;;;9.68;3.05;;;20.80;84.10;;;;;;4972778;28;20141;-78
2023/06/14 07:32:00;;;;;;;8.35;2.92;;;21.00;83.90;;;;;;4973100;28;20046;-80
2023/06/14 07:34:29;;;;;;;7.00;2.65;;;21.10;83.40;;;;;;4973773;28;20110;-79
2023/06/14 07:36:54;;;;;;;8.18;2.72;;;21.20;82.20;;;;;;4971474;28;20225;-80
2023/06/14 07:39:20;;;;;;;9.50;2.60;;;21.20;80.90;;;;;;4973161;28;20023;-80
2023/06/14 07:41:46;;;;;;;8.00;2.60;;;21.40;80.30;;;;;;4973649;28;20479;-79
2023/06/14 07:44:12;;;;;;;6.72;2.42;;;21.20;79.30;;;;;;4971380;28;20039;-79
2023/06/14 07:46:38;;;;;;;11.38;2.85;;;21.40;79.10;;;;;;4972099;28;20035;-79
2023/06/14 07:49:03;;;;;;;7.88;2.78;;;21.40;78.20;;;;;;4971686;28;20109;-79
2023/06/14 07:51:29;;;;;;;9.07;2.50;;;21.50;78.50;;;;;;4971357;28;20051;-78
2023/06/14 07:53:56;;;;;;;8.00;2.70;;;21.50;78.00;;;;;;4977437;28;20045;-81
2023/06/14 07:56:23;;;;;;;8.38;2.67;;;21.60;78.10;;;;;;4977932;28;20055;-82
2023/06/14 07:58:48;;;;;;;10.65;2.70;;;21.80;77.80;;;;;;4977210;28;20506;-83
2023/06/14 08:01:15;;;;;;;7.65;2.63;;;21.90;77.50;;;;;;4975645;28;20089;-82
2023/06/14 08:03:40;;;;;;;6.90;2.50;;;22.20;77.20;;;;;;4977116;28;20046;-83
2023/06/14 08:06:07;;;;;;;6.40;2.28;;;22.10;75.60;;;;;;4976061;28;20051;-83
2023/06/14 08:08:32;;;;;;;7.38;2.40;;;22.10;75.30;;;;;;4976056;28;20055;-83
2023/06/14 08:10:58;;;;;;;7.72;2.40;;;22.20;74.90;;;;;;4976625;28;20492;-82
2023/06/14 08:13:24;;;;;;;8.80;2.30;;;22.20;73.50;;;;;;4976254;28;20047;-83
2023/06/14 08:15:49;;;;;;;6.93;2.40;;;22.40;74.60;;;;;;4975846;28;20043;-83
2023/06/14 08:18:15;;;;;;;6.72;2.30;;;22.40;73.50;;;;;;4974791;28;20054;-83
2023/06/14 08:20:41;;;;;;;7.93;2.30;;;22.50;73.70;;;;;;4975709;28;20051;-83
2023/06/14 08:23:08;;;;;;;8.60;2.30;;;22.60;73.60;;;;;;4975057;28;20051;-83
2023/06/14 08:25:33;;;;;;;7.20;2.28;;;22.70;72.90;;;;;;4976127;28;20097;-82
2023/06/14 08:27:59;;;;;;;8.30;2.75;;;22.70;72.80;;;;;;4976749;28;20442;-82
2023/06/14 08:30:25;;;;;;;6.55;2.30;;;22.70;72.70;;;;;;4968652;28;20058;-82
2023/06/14 08:32:51;;;;;;;6.68;2.28;;;22.90;73.00;;;;;;4955364;28;20043;-82
2023/06/14 08:35:18;;;;;;;6.82;2.20;;;22.90;72.60;;;;;;4956179;29;20054;-82
2023/06/14 08:37:47;;;;;;;9.85;2.35;;;23.00;72.00;;;;;;4957477;28;20091;-83
2023/06/14 08:40:21;;;;;;;6.85;2.33;;;23.20;71.60;;;;;;4956497;28;20039;-83
2023/06/14 08:42:54;;;;;;;8.80;2.55;;;23.30;71.20;;;;;;4957457;28;20043;-83
2023/06/14 08:45:21;;;;;;;9.18;2.28;;;23.30;70.40;;;;;;4956829;28;20055;-83
2023/06/14 08:47:51;;;;;;;7.68;2.10;;;23.30;70.70;;;;;;4956846;28;20090;-83
2023/06/14 08:50:23;;;;;;;9.77;2.58;;;23.40;70.10;;;;;;4955579;29;20078;-83
2023/06/14 08:52:57;;;;;;;8.93;2.30;;;23.50;68.40;;;;;;4956247;29;20039;-82
2023/06/14 08:55:26;;;;;;;9.05;2.20;;;23.50;68.70;;;;;;4955505;29;20058;-82
2023/06/14 08:57:54;;;;;;;9.38;2.25;;;23.50;69.40;;;;;;4956117;28;20039;-83
2023/06/14 09:00:21;;;;;;;7.65;2.30;;;23.60;69.20;;;;;;4956003;28;20039;-83
2023/06/14 09:02:47;;;;;;;6.13;2.30;;;23.60;69.10;;;;;;4972615;28;20086;-82
2023/06/14 09:05:13;;;;;;;6.60;2.28;;;23.50;69.10;;;;;;4973640;28;20138;-82
2023/06/14 09:07:43;;;;;;;9.93;2.78;;;23.60;68.90;;;;;;4974495;28;20051;-82
2023/06/14 09:10:12;;;;;;;8.05;2.45;;;23.80;69.20;;;;;;4975625;28;20495;-82
2023/06/14 09:12:42;;;;;;;7.35;2.40;;;23.80;68.40;;;;;;4974840;28;20047;-83
2023/06/14 09:15:08;;;;;;;6.70;2.20;;;23.90;68.30;;;;;;4973833;28;20387;-82
2023/06/14 09:17:38;;;;;;;6.43;2.30;;;23.90;68.00;;;;;;4961088;28;20064;-82
2023/06/14 09:20:06;;;;;;;6.38;2.10;;;23.90;67.60;;;;;;4955476;29;20202;-82
2023/06/14 09:22:32;;;;;;;9.20;2.72;;;24.10;68.00;;;;;;4954495;29;20048;-82
2023/06/14 09:24:58;;;;;;;7.65;2.38;;;24.20;67.80;;;;;;4954991;29;20476;-82
2023/06/14 09:27:26;;;;;;;6.22;2.20;;;24.20;67.20;;;;;;4956585;28;20047;-82
2023/06/14 09:29:52;;;;;;;6.40;2.30;;;24.30;66.90;;;;;;4954149;29;20411;-83
2023/06/14 09:32:18;;;;;;;7.43;2.10;;;24.40;66.60;;;;;;4956429;28;20039;-83
2023/06/14 09:34:44;;;;;;;6.53;2.08;;;24.40;65.80;;;;;;4956461;29;20503;-83
2023/06/14 09:37:09;;;;;;;10.95;2.28;;;24.50;66.00;;;;;;4954223;29;20055;-83
2023/06/14 09:39:35;;;;;;;5.90;2.05;;;24.50;65.10;;;;;;4956183;29;20487;-83
2023/06/14 09:42:00;;;;;;;6.75;2.28;;;24.50;65.10;;;;;;4956046;29;20050;-83
2023/06/14 09:44:29;;;;;;;6.55;2.22;;;24.40;64.80;;;;;;4954282;29;20083;-83
2023/06/14 09:46:56;;;;;;;7.28;2.40;;;24.30;64.70;;;;;;4963582;28;20077;-82
2023/06/14 09:49:21;;;;;;;7.68;2.30;;;24.40;64.80;;;;;;4975200;28;20501;-83
2023/06/14 09:51:52;;;;;;;7.43;2.30;;;24.60;64.90;;;;;;4973074;28;20046;-81
2023/06/14 09:54:22;;;;;;;6.13;2.08;;;24.50;64.80;;;;;;4954406;29;20479;-81
2023/06/14 09:56:49;;;;;;;6.28;2.10;;;24.70;64.90;;;;;;4955467;29;20403;-81
2023/06/14 09:59:20;;;;;;;8.55;2.25;;;24.70;64.50;;;;;;4955794;28;20051;-81
2023/06/14 10:01:46;;;;;;;7.53;2.10;;;24.70;64.40;;;;;;4954544;29;20043;-81
2023/06/14 10:04:14;;;;;;;7.70;2.22;;;24.60;64.50;;;;;;4954816;28;20110;-82
2023/06/14 10:06:43;;;;;;;6.40;2.20;;;24.90;64.80;;;;;;4954449;29;20075;-82
2023/06/14 10:09:10;;;;;;;8.07;2.40;;;24.90;64.60;;;;;;4954382;29;20447;-81
2023/06/14 10:11:36;;;;;;;7.75;2.13;;;25.10;64.90;;;;;;4954885;28;20051;-82
2023/06/14 10:14:05;;;;;;;7.68;2.35;;;25.30;64.80;;;;;;4955351;28;20407;-82
2023/06/14 10:17:08;;;;;;;6.65;2.20;;;25.30;65.00;;;;;;4954220;28;20070;-83
2023/06/14 10:20:17;;;;;;;8.00;2.33;;;25.30;63.80;;;;;;4969877;28;20055;-83
2023/06/14 10:23:01;;;;;;;6.45;2.10;;;25.40;64.70;;;;;;4935117;29;20054;-83
2023/06/14 10:25:31;;;;;;;7.32;2.33;;;25.50;63.80;;;;;;4958692;28;20039;-81
2023/06/14 10:28:03;;;;;;;6.70;2.25;;;25.70;64.50;;;;;;4973829;28;20038;-82
2023/06/14 10:30:29;;;;;;;7.03;2.10;;;25.70;63.90;;;;;;4970611;28;20053;-81
2023/06/14 10:33:07;;;;;;;7.40;2.08;;;25.70;63.90;;;;;;4972158;28;20047;-80
2023/06/14 10:35:34;;;;;;;5.18;1.98;;;25.90;63.30;;;;;;4971090;28;20050;-79
2023/06/14 10:38:11;;;;;;;6.65;2.22;;;26.00;63.80;;;;;;4969454;28;20066;-80
2023/06/14 10:40:38;;;;;;;7.55;2.10;;;26.10;63.70;;;;;;4954583;28;20035;-80
2023/06/14 10:43:23;;;;;;;8.05;2.10;;;26.10;63.60;;;;;;4953475;29;20107;-82
2023/06/14 10:46:18;;;;;;;10.35;2.30;;;26.20;63.10;;;;;;4953202;29;20075;-79
2023/06/14 10:48:46;;;;;;;9.52;2.30;;;26.30;62.70;;;;;;4955039;28;20062;-79
2023/06/14 10:51:21;;;;;;;9.18;2.17;;;26.30;63.50;;;;;;4954573;29;20565;-81
2023/06/14 10:53:50;;;;;;;8.55;2.28;;;26.10;63.20;;;;;;4952996;29;20062;-81
2023/06/14 10:56:28;;;;;;;10.90;2.45;;;26.10;62.80;;;;;;4954764;28;20035;-81
2023/06/14 10:58:58;;;;;;;7.97;2.38;;;26.20;62.80;;;;;;4955386;28;20110;-81
2023/06/14 11:01:36;;;;;;;7.65;2.38;;;26.10;62.40;;;;;;4952827;29;20133;-82
2023/06/14 11:04:08;;;;;;;6.70;2.03;;;26.10;62.40;;;;;;4953587;29;20400;-82
2023/06/14 11:06:46;;;;;;;5.47;1.92;;;26.20;62.20;;;;;;4953701;29;20058;-82
2023/06/14 11:09:32;;;;;;;7.13;2.20;;;26.30;62.20;;;;;;4952910;29;20106;-82
2023/06/14 11:11:59;;;;;;;7.35;2.05;;;26.40;62.90;;;;;;4954295;28;20130;-81
2023/06/14 11:14:24;;;;;;;8.05;2.13;;;26.60;62.60;;;;;;4953771;28;20035;-81
2023/06/14 11:16:51;;;;;;;9.10;2.20;;;26.50;62.70;;;;;;4953363;29;20055;-82
2023/06/14 11:19:19;;;;;;;9.48;2.10;;;26.50;62.60;;;;;;4953399;29;20150;-82
2023/06/14 11:21:48;;;;;;;7.70;2.28;;;26.80;62.60;;;;;;4952651;29;20055;-79
2023/06/14 11:24:13;;;;;;;9.65;2.30;;;26.80;62.70;;;;;;4954610;28;20040;-81
2023/06/14 11:26:40;;;;;;;10.00;2.30;;;26.80;62.70;;;;;;4953049;29;20066;-80
2023/06/14 11:29:06;;;;;;;6.20;2.05;;;26.90;62.80;;;;;;4953621;28;20046;-79
2023/06/14 11:31:32;;;;;;;6.70;2.05;;;27.00;62.70;;;;;;4957775;28;20031;-79
2023/06/14 11:33:58;;;;;;;12.02;2.80;;;27.10;62.30;;;;;;4971651;28;20038;-79
2023/06/14 11:36:31;;;;;;;7.30;2.20;;;26.90;62.70;;;;;;4969983;28;20050;-79
2023/06/14 11:39:05;;;;;;;9.02;2.40;;;27.00;62.90;;;;;;4959646;28;20126;-79
2023/06/14 11:42:01;;;;;;;9.43;2.17;;;27.10;62.60;;;;;;4955698;28;20518;-79
2023/06/14 11:44:26;;;;;;;9.45;2.33;;;27.10;62.80;;;;;;4950323;28;20078;-79
2023/06/14 11:46:52;;;;;;;6.90;2.33;;;27.30;62.70;;;;;;4952842;28;20070;-78
2023/06/14 11:49:17;;;;;;;7.50;2.20;;;27.40;63.00;;;;;;4952112;28;20094;-79
2023/06/14 11:51:43;;;;;;;6.85;2.45;;;27.20;62.90;;;;;;4954211;28;20031;-79
2023/06/14 11:54:09;;;;;;;7.85;2.17;;;27.30;62.60;;;;;;4952521;28;20051;-79
2023/06/14 11:56:36;;;;;;;9.10;2.50;;;27.30;62.20;;;;;;4958521;28;20456;-80
2023/06/14 11:59:03;;;;;;;7.35;2.22;;;27.40;62.80;;;;;;4953853;28;20098;-79
2023/06/14 12:01:30;;;;;;;9.38;2.25;;;27.40;62.30;;;;;;4953741;28;20039;-80
2023/06/14 12:03:55;;;;;;;7.30;2.30;;;27.60;62.30;;;;;;4953329;28;20047;-79
2023/06/14 12:06:32;;;;;;;8.95;2.42;;;27.70;62.20;;;;;;4952461;28;20106;-79
2023/06/14 12:08:58;;;;;;;7.90;2.33;;;27.80;62.10;;;;;;4953701;28;20085;-79
2023/06/14 12:11:32;;;;;;;7.25;2.20;;;27.80;61.90;;;;;;4953227;28;20506;-79
2023/06/14 12:13:57;;;;;;;6.88;2.20;;;27.80;61.90;;;;;;4953360;28;20510;-79
2023/06/14 12:16:31;;;;;;;8.27;2.25;;;27.60;62.60;;;;;;4953783;28;20035;-79
2023/06/14 12:19:00;;;;;;;7.88;2.40;;;27.70;62.60;;;;;;4951647;29;20503;-80
2023/06/14 12:21:28;;;;;;;7.25;2.38;;;27.80;62.40;;;;;;4954073;28;20035;-79
2023/06/14 12:23:53;;;;;;;7.20;2.42;;;28.00;62.20;;;;;;4953732;28;20047;-79
2023/06/14 12:26:20;;;;;;;7.18;2.38;;;28.20;62.50;;;;;;4952821;28;20039;-79
2023/06/14 12:28:47;;;;;;;7.05;2.40;;;28.30;62.40;;;;;;4952446;28;20098;-80
2023/06/14 12:31:15;;;;;;;6.60;2.10;;;28.30;62.20;;;;;;4953609;28;20043;-79
2023/06/14 12:33:41;;;;;;;9.43;2.58;;;28.30;62.20;;;;;;4961582;28;20039;-80
2023/06/14 12:36:08;;;;;;;7.82;2.35;;;28.20;62.40;;;;;;4971421;28;20053;-79
2023/06/14 12:38:34;;;;;;;6.50;2.17;;;28.40;62.30;;;;;;4954153;28;20051;-79
2023/06/14 12:41:00;;;;;;;8.45;2.60;;;28.50;62.00;;;;;;4957142;28;20098;-79
2023/06/14 12:43:26;;;;;;;7.20;2.50;;;28.70;61.70;;;;;;4957096;28;20093;-79
2023/06/14 12:45:51;;;;;;;6.25;2.30;;;28.60;61.60;;;;;;4955254;28;20074;-79